Time;durP1;ratioP1;P1;durP2;ratioP2;P2;SDS_P1;SDS_P2;PMS_P1;PMS_P2;Temp;Humidity;BMP_temperature;BMP_pressure;BME280_temperature;BME280_humidity;BME280_pressure;Samples;Min_cycle;Max_cycle;Signal;HPM_P1;HPM_P2
2024/03/04 00:01:22;;;;;;;4.80;3.70;;;;;6.40;100299.00;;;;10346322;28;20853;-76
2024/03/04 00:06:23;;;;;;;4.27;3.60;;;;;6.40;100314.00;;;;10353777;28;20300;-76
2024/03/04 00:11:26;;;;;;;5.47;2.93;;;;;6.50;100314.00;;;;10369439;28;20322;-77
2024/03/04 00:16:29;;;;;;;8.50;2.80;;;;;6.50;100324.00;;;;10349480;28;20227;-78
2024/03/04 00:21:30;;;;;;;4.90;3.00;;;;;6.50;100324.00;;;;10358396;28;20232;-77
2024/03/04 00:26:32;;;;;;;4.13;2.20;;;;;6.50;100336.00;;;;10331748;28;20291;-77
2024/03/04 00:31:33;;;;;;;2.80;2.10;;;;;6.60;100347.00;;;;10365506;28;20226;-77
2024/03/04 00:36:34;;;;;;;5.23;2.40;;;;;6.60;100341.00;;;;10349409;28;20223;-78
2024/03/04 00:41:35;;;;;;;6.03;2.17;;;;;6.60;100356.00;;;;10356151;28;20326;-77
2024/03/04 00:46:41;;;;;;;3.03;1.73;;;;;6.60;100367.00;;;;10374593;28;20226;-76
2024/03/04 00:51:42;;;;;;;5.70;2.00;;;;;6.60;100366.00;;;;10354239;28;20222;-76
2024/03/04 00:56:44;;;;;;;5.47;2.10;;;;;6.60;100375.00;;;;10331084;28;20230;-76
2024/03/04 01:01:45;;;;;;;2.53;2.03;;;;;6.60;100384.00;;;;10342774;28;20584;-78
2024/03/04 01:06:51;;;;;;;5.10;2.37;;;;;6.60;100396.00;;;;10364027;28;20226;-77
2024/03/04 01:11:53;;;;;;;4.10;2.50;;;;;6.60;100402.00;;;;10361854;28;20218;-76
2024/03/04 01:16:54;;;;;;;3.80;2.60;;;;;6.60;100398.00;;;;10363003;28;20739;-76
2024/03/04 01:21:55;;;;;;;4.53;3.37;;;;;6.60;100400.00;;;;10349342;28;20258;-77
2024/03/04 01:26:56;;;;;;;4.83;3.37;;;;;6.60;100404.00;;;;10362298;28;20229;-76
2024/03/04 01:31:58;;;;;;;4.20;3.57;;;;;6.60;100402.00;;;;10345276;28;20253;-77
2024/03/04 01:36:59;;;;;;;5.07;4.00;;;;;6.60;100403.00;;;;10347361;28;20307;-77
2024/03/04 01:42:01;;;;;;;7.00;4.23;;;;;6.60;100402.00;;;;10392056;28;20234;-76
2024/03/04 01:47:07;;;;;;;6.90;4.40;;;;;6.50;100408.00;;;;10390468;28;20221;-78
2024/03/04 01:52:08;;;;;;;9.73;5.03;;;;;6.50;100418.00;;;;10393195;28;20724;-76
2024/03/04 01:57:13;;;;;;;11.40;5.03;;;;;6.50;100415.00;;;;10374242;28;20227;-75
2024/03/04 02:02:16;;;;;;;7.10;5.33;;;;;6.50;100429.00;;;;10382025;28;20218;-77
2024/03/04 02:07:17;;;;;;;6.77;5.03;;;;;6.60;100428.00;;;;10391408;28;20223;-77
2024/03/04 02:12:18;;;;;;;6.10;4.70;;;;;6.60;100432.00;;;;10386150;28;20224;-76
2024/03/04 02:17:19;;;;;;;8.73;5.40;;;;;6.60;100436.00;;;;10361431;28;20225;-76
2024/03/04 02:22:29;;;;;;;6.50;4.60;;;;;6.60;100453.00;;;;10379721;28;20258;-77
2024/03/04 02:27:30;;;;;;;8.80;5.60;;;;;6.60;100443.00;;;;10402302;28;20222;-76
2024/03/04 02:32:32;;;;;;;7.20;5.33;;;;;6.60;100442.00;;;;10380363;28;20317;-77
2024/03/04 02:37:36;;;;;;;5.43;4.70;;;;;6.60;100438.00;;;;10356543;28;20235;-77
2024/03/04 02:42:38;;;;;;;7.07;4.80;;;;;6.60;100429.00;;;;10387421;28;20226;-76
2024/03/04 02:47:39;;;;;;;6.63;4.30;;;;;6.50;100443.00;;;;10383993;28;20323;-79
2024/03/04 02:52:41;;;;;;;6.00;4.27;;;;;6.40;100447.00;;;;10354114;28;20266;-79
2024/03/04 02:57:42;;;;;;;8.77;5.03;;;;;6.40;100434.00;;;;10379440;28;20281;-79
2024/03/04 03:02:43;;;;;;;7.73;4.60;;;;;6.30;100435.00;;;;10392999;28;20337;-80
2024/03/04 03:07:44;;;;;;;6.03;5.07;;;;;6.20;100448.00;;;;10353596;28;20272;-79
2024/03/04 03:12:46;;;;;;;9.20;4.93;;;;;6.10;100458.00;;;;10369302;28;20688;-78
2024/03/04 03:17:47;;;;;;;7.73;5.73;;;;;6.10;100462.00;;;;10395595;28;20292;-78
2024/03/04 03:22:51;;;;;;;6.97;5.57;;;;;6.10;100471.00;;;;10361189;28;20230;-79
2024/03/04 03:27:52;;;;;;;11.33;6.60;;;;;6.10;100462.00;;;;10364725;28;20222;-79
2024/03/04 03:32:53;;;;;;;11.67;6.53;;;;;6.10;100468.00;;;;10367800;28;20467;-78
2024/03/04 03:37:54;;;;;;;8.23;7.20;;;;;6.10;100480.00;;;;10387525;28;20214;-78
2024/03/04 03:42:56;;;;;;;9.93;7.53;;;;;6.00;100486.00;;;;10362592;28;20310;-79
2024/03/04 03:47:57;;;;;;;11.17;8.17;;;;;6.00;100484.00;;;;10375622;28;20786;-80
2024/03/04 03:52:58;;;;;;;10.27;9.07;;;;;6.10;100489.00;;;;10397656;28;20214;-79
2024/03/04 03:58:00;;;;;;;12.73;9.03;;;;;6.10;100483.00;;;;10356278;28;20229;-77
2024/03/04 04:03:01;;;;;;;11.80;8.77;;;;;6.00;100494.00;;;;10381896;28;20227;-77
2024/03/04 04:08:03;;;;;;;11.57;9.07;;;;;6.00;100494.00;;;;10405695;28;20218;-76
2024/03/04 04:13:05;;;;;;;11.53;10.33;;;;;6.00;100496.00;;;;10399418;28;20218;-77
2024/03/04 04:18:06;;;;;;;11.63;9.77;;;;;6.00;100499.00;;;;10365011;28;20214;-78
2024/03/04 04:23:07;;;;;;;13.37;9.90;;;;;6.00;100507.00;;;;10389104;28;20236;-76
2024/03/04 04:28:09;;;;;;;13.47;10.57;;;;;5.90;100513.00;;;;10378667;28;20276;-77
2024/03/04 04:33:10;;;;;;;16.70;11.50;;;;;5.90;100517.00;;;;10384235;28;20310;-76
2024/03/04 04:38:12;;;;;;;13.53;10.33;;;;;5.90;100522.00;;;;10390966;28;20219;-75
2024/03/04 04:43:13;;;;;;;15.30;11.30;;;;;5.90;100515.00;;;;10363213;28;20305;-76
2024/03/04 04:48:14;;;;;;;16.60;12.70;;;;;5.90;100525.00;;;;10395257;28;20214;-79
2024/03/04 04:53:15;;;;;;;17.13;11.77;;;;;5.90;100530.00;;;;10373371;28;20592;-77
2024/03/04 04:58:19;;;;;;;15.33;12.17;;;;;5.90;100526.00;;;;10392456;28;20443;-76
2024/03/04 05:03:20;;;;;;;12.83;11.53;;;;;5.80;100533.00;;;;10379025;28;20242;-77
2024/03/04 05:08:42;;;;;;;14.13;11.63;;;;;5.80;100525.00;;;;10366218;28;20218;-78
2024/03/04 05:13:44;;;;;;;20.40;13.33;;;;;5.80;100531.00;;;;10416663;28;20242;-78
2024/03/04 05:18:45;;;;;;;18.13;13.60;;;;;5.80;100542.00;;;;10392834;28;20272;-78
2024/03/04 05:23:46;;;;;;;20.70;13.73;;;;;5.80;100545.00;;;;10399085;28;20238;-79
2024/03/04 05:28:48;;;;;;;20.03;14.30;;;;;5.80;100551.00;;;;10399838;28;20284;-78
2024/03/04 05:33:49;;;;;;;17.17;13.70;;;;;5.80;100541.00;;;;10355498;28;20233;-78
2024/03/04 05:38:50;;;;;;;23.93;14.80;;;;;5.80;100531.00;;;;10395655;28;20230;-78
2024/03/04 05:43:51;;;;;;;21.53;15.60;;;;;5.80;100539.00;;;;10397626;28;20226;-79
2024/03/04 05:48:52;;;;;;;21.30;14.53;;;;;5.80;100543.00;;;;10390976;28;20215;-79
2024/03/04 05:53:53;;;;;;;21.20;14.90;;;;;5.70;100556.00;;;;10389814;28;20301;-78
2024/03/04 05:58:54;;;;;;;23.73;14.83;;;;;5.70;100551.00;;;;10377547;28;20317;-79
2024/03/04 06:03:55;;;;;;;17.60;14.87;;;;;5.70;100558.00;;;;10384037;28;20219;-78
2024/03/04 06:08:58;;;;;;;24.27;17.10;;;;;5.70;100546.00;;;;10378389;28;20245;-78
2024/03/04 06:13:59;;;;;;;18.60;16.50;;;;;5.70;100546.00;;;;10404168;28;20253;-78
2024/03/04 06:19:01;;;;;;;26.27;17.73;;;;;5.60;100553.00;;;;10372741;28;20299;-77
2024/03/04 06:24:03;;;;;;;22.50;18.17;;;;;5.70;100573.00;;;;10370187;28;20218;-78
2024/03/04 06:29:04;;;;;;;26.70;18.77;;;;;5.70;100571.00;;;;10347524;28;20748;-78
2024/03/04 06:34:05;;;;;;;27.70;21.60;;;;;5.80;100575.00;;;;10376949;28;20226;-78
2024/03/04 06:39:22;;;;;;;33.90;22.47;;;;;5.90;100579.00;;;;10366470;28;20242;-77
2024/03/04 06:44:23;;;;;;;30.97;22.93;;;;;6.00;100581.00;;;;10374365;28;20227;-77
2024/03/04 06:49:24;;;;;;;30.87;22.77;;;;;6.10;100604.00;;;;10386536;28;20222;-77
2024/03/04 06:54:26;;;;;;;30.77;23.43;;;;;6.20;100598.00;;;;10392850;28;20257;-77
2024/03/04 06:59:27;;;;;;;31.50;24.37;;;;;6.30;100612.00;;;;10389345;28;20301;-79
2024/03/04 07:04:28;;;;;;;29.93;23.83;;;;;6.40;100618.00;;;;10398830;28;20276;-77
2024/03/04 07:09:29;;;;;;;40.60;24.27;;;;;6.50;100631.00;;;;10401679;28;20226;-77
2024/03/04 07:14:30;;;;;;;33.43;26.17;;;;;6.70;100626.00;;;;10384779;28;20280;-77
2024/03/04 07:19:31;;;;;;;36.87;25.37;;;;;6.90;100635.00;;;;10383708;28;20232;-77
2024/03/04 07:24:33;;;;;;;32.10;25.10;;;;;7.00;100644.00;;;;10392480;28;20222;-77
2024/03/04 07:29:34;;;;;;;28.90;24.27;;;;;7.10;100649.00;;;;10388232;28;20309;-79
2024/03/04 07:34:44;;;;;;;32.33;24.93;;;;;7.40;100645.00;;;;10378702;28;20229;-81
2024/03/04 07:39:45;;;;;;;33.67;24.63;;;;;7.60;100646.00;;;;10360539;28;20330;-82
2024/03/04 07:44:47;;;;;;;30.07;22.10;;;;;7.60;100655.00;;;;10340944;28;20306;-82
2024/03/04 07:49:48;;;;;;;32.70;24.40;;;;;7.60;100653.00;;;;10332924;28;20219;-82
2024/03/04 07:54:49;;;;;;;30.60;23.20;;;;;7.60;100655.00;;;;10322874;28;20578;-82
2024/03/04 07:59:50;;;;;;;32.47;22.50;;;;;7.70;100658.00;;;;10324759;28;20952;-82
2024/03/04 08:04:52;;;;;;;28.30;23.67;;;;;7.80;100659.00;;;;10337203;28;20306;-84
2024/03/04 08:09:53;;;;;;;31.27;24.00;;;;;7.90;100673.00;;;;10342639;28;20220;-83
2024/03/04 08:14:54;;;;;;;27.17;22.70;;;;;7.90;100671.00;;;;10383130;28;20223;-82
2024/03/04 08:19:58;;;;;;;31.53;22.17;;;;;8.00;100672.00;;;;10361252;28;20216;-83
2024/03/04 08:25:04;;;;;;;45.23;23.97;;;;;8.10;100678.00;;;;10364134;28;20750;-79
2024/03/04 08:30:06;;;;;;;27.23;21.63;;;;;8.30;100666.00;;;;10396403;28;20297;-80
2024/03/04 08:35:09;;;;;;;24.63;19.03;;;;;8.60;100672.00;;;;10373003;28;20274;-81
2024/03/04 08:40:12;;;;;;;80.70;26.67;;;;;8.90;100667.00;;;;10365968;28;20215;-79
2024/03/04 08:45:16;;;;;;;38.10;21.87;;;;;9.40;100670.00;;;;10339038;28;20312;-79
2024/03/04 08:50:17;;;;;;;22.67;19.27;;;;;9.90;100678.00;;;;10346288;28;21242;-79
2024/03/04 08:55:18;;;;;;;24.50;18.73;;;;;10.50;100676.00;;;;10379400;28;20230;-79
2024/03/04 09:00:20;;;;;;;25.77;18.17;;;;;10.90;100675.00;;;;10379172;28;20937;-80
2024/03/04 09:05:21;;;;;;;23.40;16.90;;;;;11.60;100671.00;;;;10361636;28;20222;-79
2024/03/04 09:10:22;;;;;;;21.20;15.40;;;;;12.00;100661.00;;;;10343347;28;20218;-79
2024/03/04 09:15:24;;;;;;;19.57;13.83;;;;;12.70;100656.00;;;;10360931;28;20695;-79
2024/03/04 09:20:25;;;;;;;14.85;11.30;;;;;13.70;100655.00;;;;10349139;28;20301;-80
2024/03/04 09:25:26;;;;;;;16.75;11.82;;;;;13.60;100662.00;;;;10352795;28;20918;-79
2024/03/04 09:30:27;;;;;;;20.73;14.02;;;;;12.80;100667.00;;;;10385303;28;20231;-79
2024/03/04 09:35:28;;;;;;;17.30;12.25;;;;;12.10;100689.00;;;;10377746;28;20236;-79
2024/03/04 09:40:30;;;;;;;14.45;12.32;;;;;12.00;100688.00;;;;10363536;28;20218;-79
2024/03/04 09:45:32;;;;;;;15.02;12.40;;;;;12.50;100687.00;;;;10354205;28;20222;-78
2024/03/04 09:50:35;;;;;;;18.85;10.98;;;;;13.20;100681.00;;;;10363928;28;20305;-80
2024/03/04 09:55:36;;;;;;;12.52;10.73;;;;;13.40;100681.00;;;;10357733;28;20250;-80
2024/03/04 10:00:38;;;;;;;11.57;9.38;;;;;13.50;100685.00;;;;10361655;28;20699;-80
2024/03/04 10:05:45;;;;;;;14.32;9.50;;;;;13.90;100682.00;;;;10379411;28;20254;-80
2024/03/04 10:10:50;;;;;;;13.80;9.70;;;;;13.80;100685.00;;;;10370455;28;20309;-81
2024/03/04 10:15:53;;;;;;;13.02;9.90;;;;;14.20;100693.00;;;;10370066;28;20231;-81
2024/03/04 10:20:57;;;;;;;10.20;8.60;;;;;14.70;100678.00;;;;10361533;28;20741;-80
2024/03/04 10:26:09;;;;;;;11.57;8.05;;;;;14.40;100679.00;;;;10381782;28;20828;-80
2024/03/04 10:31:11;;;;;;;9.43;6.28;;;;;14.30;100683.00;;;;10347806;28;20306;-80
2024/03/04 10:36:20;;;;;;;6.95;5.70;;;;;14.30;100691.00;;;;10353614;28;20229;-80
2024/03/04 10:41:26;;;;;;;6.18;4.80;;;;;13.60;100689.00;;;;10388247;28;20258;-80
2024/03/04 10:46:27;;;;;;;7.57;5.85;;;;;14.30;100684.00;;;;10367466;28;20231;-80
2024/03/04 10:51:28;;;;;;;9.18;6.05;;;;;14.80;100677.00;;;;10369746;28;20226;-80
2024/03/04 10:56:32;;;;;;;10.02;7.00;;;;;14.70;100673.00;;;;10384585;28;20313;-78
2024/03/04 11:01:33;;;;;;;10.15;6.78;;;;;15.20;100674.00;;;;10360386;28;20231;-79
2024/03/04 11:06:38;;;;;;;8.52;6.72;;;;;15.60;100673.00;;;;10397209;28;20234;-78
2024/03/04 11:11:44;;;;;;;11.20;7.65;;;;;16.10;100673.00;;;;10381742;28;20305;-77
2024/03/04 11:17:05;;;;;;;7.82;6.13;;;;;16.30;100668.00;;;;10362835;28;20880;-76
2024/03/04 11:22:07;;;;;;;9.10;6.97;;;;;15.90;100665.00;;;;10350662;28;20227;-79
2024/03/04 11:27:09;;;;;;;8.38;7.47;;;;;15.90;100665.00;;;;10352457;28;20215;-77
2024/03/04 11:32:11;;;;;;;8.32;7.10;;;;;16.40;100663.00;;;;10349927;28;20305;-77
2024/03/04 11:37:18;;;;;;;10.75;6.75;;;;;16.20;100645.00;;;;10355296;28;20250;-76
2024/03/04 11:42:36;;;;;;;10.60;6.20;;;;;15.90;100650.00;;;;10378746;28;20661;-78
2024/03/04 11:47:37;;;;;;;6.80;5.97;;;;;16.20;100648.00;;;;10379565;28;20230;-78
2024/03/04 11:52:38;;;;;;;9.38;6.03;;;;;16.20;100643.00;;;;10370606;28;20289;-78
2024/03/04 11:57:40;;;;;;;8.35;6.72;;;;;16.20;100650.00;;;;10389391;28;20812;-78
2024/03/04 12:02:42;;;;;;;9.75;6.00;;;;;16.50;100650.00;;;;10357289;28;20226;-77
2024/03/04 12:07:43;;;;;;;6.85;4.88;;;;;16.20;100648.00;;;;10393985;28;20234;-78
2024/03/04 12:12:46;;;;;;;6.15;4.85;;;;;16.50;100655.00;;;;10396653;28;20246;-79
2024/03/04 12:17:47;;;;;;;8.55;5.15;;;;;16.70;100652.00;;;;10392480;28;20677;-78
2024/03/04 12:22:49;;;;;;;8.85;5.40;;;;;16.90;100641.00;;;;10366589;28;20234;-78
2024/03/04 12:27:54;;;;;;;7.75;4.68;;;;;16.90;100646.00;;;;10398559;28;20222;-78
2024/03/04 12:33:02;;;;;;;6.88;5.05;;;;;17.00;100656.00;;;;10397138;28;20317;-77
2024/03/04 12:38:03;;;;;;;6.63;4.78;;;;;17.00;100649.00;;;;10386022;28;20241;-81
2024/03/04 12:43:05;;;;;;;7.28;4.60;;;;;17.00;100649.00;;;;10371402;28;20218;-77
2024/03/04 12:48:08;;;;;;;8.00;4.88;;;;;17.10;100647.00;;;;10364653;28;20696;-78
2024/03/04 12:53:14;;;;;;;7.68;5.07;;;;;17.20;100645.00;;;;10378905;28;20546;-77
2024/03/04 12:58:15;;;;;;;7.45;5.38;;;;;17.20;100632.00;;;;10391671;28;20215;-77
2024/03/04 13:03:17;;;;;;;9.13;5.28;;;;;16.80;100633.00;;;;10371541;28;20853;-77
2024/03/04 13:08:20;;;;;;;9.82;4.60;;;;;16.70;100628.00;;;;10376761;28;20238;-77
2024/03/04 13:13:21;;;;;;;11.15;5.40;;;;;16.80;100617.00;;;;10370492;28;20236;-78
2024/03/04 13:18:22;;;;;;;5.53;4.97;;;;;16.90;100620.00;;;;10386948;28;20230;-77
2024/03/04 13:23:24;;;;;;;8.07;4.53;;;;;16.70;100612.00;;;;10408505;28;20227;-78
2024/03/04 13:28:25;;;;;;;8.25;4.72;;;;;16.60;100608.00;;;;10337306;28;20258;-75
2024/03/04 13:33:26;;;;;;;6.70;4.82;;;;;16.40;100610.00;;;;10343970;28;21017;-75
2024/03/04 13:38:31;;;;;;;6.78;4.55;;;;;16.40;100607.00;;;;10370448;28;20281;-77
2024/03/04 13:43:32;;;;;;;6.53;4.82;;;;;16.30;100609.00;;;;10403722;28;20241;-77
2024/03/04 13:48:33;;;;;;;8.25;4.70;;;;;16.60;100597.00;;;;10387247;28;20674;-77
2024/03/04 13:53:36;;;;;;;6.63;4.63;;;;;17.00;100593.00;;;;10375061;28;20262;-77
2024/03/04 13:58:37;;;;;;;6.38;4.63;;;;;18.10;100590.00;;;;10359342;28;20330;-77
2024/03/04 14:03:38;;;;;;;6.50;5.30;;;;;19.00;100548.00;;;;10365791;28;20688;-78
2024/03/04 14:08:40;;;;;;;10.07;5.07;;;;;19.30;100531.00;;;;10408907;28;20257;-78
2024/03/04 14:13:41;;;;;;;8.77;5.15;;;;;20.70;100499.00;;;;10389828;28;20723;-77
2024/03/04 14:18:42;;;;;;;8.40;4.40;;;;;20.10;100496.00;;;;10393890;28;20276;-77
2024/03/04 14:23:43;;;;;;;6.70;5.15;;;;;19.50;100504.00;;;;10393415;28;20246;-77
2024/03/04 14:28:44;;;;;;;8.35;4.93;;;;;18.20;100468.00;;;;10368980;28;20836;-78
2024/03/04 14:33:47;;;;;;;9.35;4.65;;;;;19.20;100479.00;;;;10394803;28;20276;-77
2024/03/04 14:38:49;;;;;;;8.25;5.28;;;;;18.10;100510.00;;;;10379418;28;20296;-80
2024/03/04 14:43:52;;;;;;;8.57;4.10;;;;;19.50;100475.00;;;;10384911;28;20230;-80
2024/03/04 14:48:53;;;;;;;6.07;4.35;;;;;19.20;100496.00;;;;10357525;28;20983;-80
2024/03/04 14:53:54;;;;;;;10.18;4.72;;;;;18.90;100462.00;;;;10366880;28;20226;-80
2024/03/04 14:58:56;;;;;;;5.30;3.90;;;;;18.40;100516.00;;;;10376428;28;20229;-80
2024/03/04 15:03:57;;;;;;;7.82;3.90;;;;;18.40;100521.00;;;;10358255;28;20357;-80
2024/03/04 15:08:58;;;;;;;6.22;3.55;;;;;18.70;100489.00;;;;10372383;28;20219;-80
2024/03/04 15:13:59;;;;;;;6.65;4.40;;;;;18.80;100516.00;;;;10389810;28;20224;-80
2024/03/04 15:19:02;;;;;;;6.90;5.00;;;;;16.50;100545.00;;;;10393893;28;20308;-80
2024/03/04 15:24:04;;;;;;;6.65;5.07;;;;;15.00;100523.00;;;;10370893;28;20222;-80
2024/03/04 15:29:06;;;;;;;19.83;4.47;;;;;16.60;100509.00;;;;10372902;28;20210;-80
2024/03/04 15:34:07;;;;;;;7.88;4.53;;;;;15.50;100536.00;;;;10352561;28;20261;-79
2024/03/04 15:39:10;;;;;;;6.22;4.97;;;;;14.40;100546.00;;;;10379949;28;20768;-80
2024/03/04 15:44:13;;;;;;;5.88;4.53;;;;;13.60;100539.00;;;;10384103;28;20268;-80
2024/03/04 15:49:14;;;;;;;9.07;4.53;;;;;13.40;100540.00;;;;10361601;28;20261;-78
2024/03/04 15:54:16;;;;;;;10.07;4.32;;;;;13.10;100536.00;;;;10361116;28;20246;-77
2024/03/04 15:59:17;;;;;;;7.22;4.75;;;;;13.00;100535.00;;;;10374711;28;20285;-78
2024/03/04 16:04:18;;;;;;;9.48;4.50;;;;;12.70;100534.00;;;;10335913;28;20219;-77
2024/03/04 16:09:20;;;;;;;5.97;4.00;;;;;12.60;100544.00;;;;10369608;28;20244;-77
2024/03/04 16:14:21;;;;;;;6.18;4.13;;;;;12.50;100540.00;;;;10382828;28;20230;-76
2024/03/04 16:19:23;;;;;;;8.35;4.20;;;;;12.20;100537.00;;;;10365002;28;20482;-77
2024/03/04 16:24:24;;;;;;;5.30;3.97;;;;;12.00;100545.00;;;;10352737;28;20231;-76
2024/03/04 16:29:27;;;;;;;5.83;3.90;;;;;11.80;100542.00;;;;10387995;28;20219;-76
2024/03/04 16:34:28;;;;;;;4.83;3.93;;;;;11.70;100548.00;;;;10370156;28;20309;-76
2024/03/04 16:39:29;;;;;;;5.30;4.07;;;;;11.50;100550.00;;;;10360277;28;20623;-77
2024/03/04 16:44:30;;;;;;;8.83;4.20;;;;;11.40;100562.00;;;;10351025;28;20303;-77
2024/03/04 16:49:32;;;;;;;5.47;4.00;;;;;11.20;100559.00;;;;10381507;28;20235;-77
2024/03/04 16:54:33;;;;;;;5.47;4.40;;;;;11.00;100565.00;;;;10384938;28;20738;-78
2024/03/04 16:59:38;;;;;;;5.43;3.43;;;;;10.80;100557.00;;;;10378704;28;20223;-83
2024/03/04 17:04:40;;;;;;;5.80;3.50;;;;;10.60;100561.00;;;;10378249;28;20226;-84
2024/03/04 17:09:41;;;;;;;9.27;4.07;;;;;10.40;100566.00;;;;10392758;28;20356;-84
2024/03/04 17:14:42;;;;;;;6.23;3.93;;;;;10.20;100573.00;;;;10385889;28;20325;-83
2024/03/04 17:19:43;;;;;;;4.83;3.47;;;;;10.00;100570.00;;;;10386148;28;20223;-83
2024/03/04 17:24:45;;;;;;;5.77;3.60;;;;;9.80;100576.00;;;;10377914;28;20214;-84
2024/03/04 17:29:46;;;;;;;8.27;4.07;;;;;9.60;100568.00;;;;10342545;28;20223;-84
2024/03/04 17:34:47;;;;;;;7.93;4.37;;;;;9.40;100572.00;;;;10358699;28;20225;-83
2024/03/04 17:39:48;;;;;;;7.87;4.53;;;;;9.20;100579.00;;;;10376587;28;20221;-83
2024/03/04 17:44:49;;;;;;;7.07;5.07;;;;;9.00;100582.00;;;;10365529;28;20298;-83
2024/03/04 17:49:50;;;;;;;7.37;4.53;;;;;8.80;100587.00;;;;10374514;28;20807;-84
2024/03/04 17:54:52;;;;;;;8.60;4.13;;;;;8.70;100582.00;;;;10341440;28;20227;-84
2024/03/04 17:59:53;;;;;;;6.57;4.97;;;;;8.60;100589.00;;;;10340216;28;20231;-82
2024/03/04 18:04:54;;;;;;;7.77;4.67;;;;;8.60;100589.00;;;;10330745;28;20594;-83
2024/03/04 18:09:55;;;;;;;10.97;6.00;;;;;8.60;100593.00;;;;10375015;28;20222;-77
2024/03/04 18:14:56;;;;;;;7.23;5.10;;;;;8.50;100591.00;;;;10354470;28;20234;-76
2024/03/04 18:19:58;;;;;;;8.70;5.67;;;;;8.40;100603.00;;;;10370711;28;20309;-76
2024/03/04 18:24:59;;;;;;;15.50;8.80;;;;;8.40;100597.00;;;;10318265;28;20857;-77
2024/03/04 18:30:02;;;;;;;15.17;10.20;;;;;8.30;100605.00;;;;10359232;28;20288;-78
2024/03/04 18:35:04;;;;;;;12.90;9.20;;;;;8.20;100608.00;;;;10340092;28;20881;-77
2024/03/04 18:40:07;;;;;;;10.63;7.17;;;;;8.20;100611.00;;;;10372629;28;20225;-77
2024/03/04 18:45:08;;;;;;;10.97;7.63;;;;;8.10;100604.00;;;;10375093;28;20253;-79
2024/03/04 18:50:10;;;;;;;11.10;7.50;;;;;8.10;100605.00;;;;10348846;28;20658;-79
2024/03/04 18:55:11;;;;;;;9.43;7.73;;;;;8.10;100608.00;;;;10313778;28;20770;-78
2024/03/04 19:00:14;;;;;;;13.43;7.87;;;;;8.00;100608.00;;;;10332589;28;20251;-78
2024/03/04 19:05:15;;;;;;;10.93;6.83;;;;;7.90;100608.00;;;;10345711;28;20318;-79
2024/03/04 19:10:16;;;;;;;13.13;7.90;;;;;7.80;100605.00;;;;10373667;28;20306;-78
2024/03/04 19:15:17;;;;;;;11.43;8.10;;;;;7.80;100603.00;;;;10349985;28;21705;-78
2024/03/04 19:20:18;;;;;;;12.73;8.87;;;;;7.70;100601.00;;;;10359994;28;20305;-78
2024/03/04 19:25:19;;;;;;;12.47;8.53;;;;;7.60;100607.00;;;;10383795;28;20226;-78
2024/03/04 19:30:21;;;;;;;11.80;8.93;;;;;7.60;100610.00;;;;10382352;28;20230;-78
2024/03/04 19:35:22;;;;;;;10.93;8.33;;;;;7.40;100612.00;;;;10381042;28;20323;-76
2024/03/04 19:40:24;;;;;;;11.97;8.70;;;;;7.20;100609.00;;;;10357244;28;20223;-77
2024/03/04 19:45:26;;;;;;;11.10;8.13;;;;;7.00;100606.00;;;;10333937;28;20589;-76
2024/03/04 19:50:27;;;;;;;11.43;7.77;;;;;6.90;100607.00;;;;10326771;28;20227;-76
2024/03/04 19:55:28;;;;;;;11.53;8.20;;;;;6.80;100617.00;;;;10325848;28;20650;-78
2024/03/04 20:00:29;;;;;;;12.40;8.67;;;;;6.70;100606.00;;;;10337714;28;20227;-77
2024/03/04 20:05:30;;;;;;;12.63;9.03;;;;;6.70;100612.00;;;;10356212;28;20304;-77
2024/03/04 20:10:31;;;;;;;14.23;8.40;;;;;6.60;100620.00;;;;10340559;28;20219;-76
2024/03/04 20:15:33;;;;;;;14.77;8.93;;;;;6.50;100625.00;;;;10363826;28;20223;-79
2024/03/04 20:20:34;;;;;;;12.93;8.53;;;;;6.40;100627.00;;;;10368295;28;20242;-77
2024/03/04 20:25:38;;;;;;;14.13;9.17;;;;;6.20;100623.00;;;;10346308;28;20220;-76
2024/03/04 20:30:41;;;;;;;15.87;8.53;;;;;6.00;100635.00;;;;10356101;28;20223;-79
2024/03/04 20:35:45;;;;;;;14.93;9.40;;;;;5.80;100632.00;;;;10378141;28;20234;-79
2024/03/04 20:40:49;;;;;;;12.87;9.80;;;;;5.80;100631.00;;;;10327237;28;20219;-79
2024/03/04 20:45:51;;;;;;;14.10;10.30;;;;;5.70;100634.00;;;;10323839;28;20227;-79
2024/03/04 20:50:53;;;;;;;17.00;11.07;;;;;5.60;100629.00;;;;10326336;28;20306;-79
2024/03/04 20:55:54;;;;;;;20.37;11.03;;;;;5.60;100629.00;;;;10340314;28;20227;-79
2024/03/04 21:00:55;;;;;;;17.37;11.90;;;;;5.50;100620.00;;;;10328547;28;20215;-79
2024/03/04 21:05:57;;;;;;;18.83;12.03;;;;;5.40;100623.00;;;;10323697;28;20233;-80
2024/03/04 21:10:58;;;;;;;18.40;11.60;;;;;5.30;100629.00;;;;10324840;28;20258;-79
2024/03/04 21:15:59;;;;;;;14.27;10.00;;;;;5.20;100622.00;;;;10352934;28;20225;-79
2024/03/04 21:21:01;;;;;;;17.67;10.90;;;;;5.20;100628.00;;;;10360870;28;20219;-79
2024/03/04 21:26:03;;;;;;;19.10;10.50;;;;;5.10;100635.00;;;;10365345;28;20677;-79
2024/03/04 21:31:04;;;;;;;15.47;11.60;;;;;5.00;100635.00;;;;10380170;28;20669;-80
2024/03/04 21:36:05;;;;;;;17.60;11.07;;;;;4.90;100630.00;;;;10346285;28;20314;-79
2024/03/04 21:41:06;;;;;;;18.10;11.70;;;;;4.80;100624.00;;;;10345893;28;20234;-76
2024/03/04 21:46:09;;;;;;;14.83;11.37;;;;;4.70;100622.00;;;;10364452;28;20249;-77
2024/03/04 21:51:10;;;;;;;22.07;12.67;;;;;4.70;100629.00;;;;10360524;28;20253;-78
2024/03/04 21:56:11;;;;;;;25.07;12.93;;;;;4.70;100633.00;;;;10350431;28;20234;-76
2024/03/04 22:01:22;;;;;;;16.83;11.63;;;;;4.70;100635.00;;;;10356093;28;20218;-77
2024/03/04 22:06:23;;;;;;;20.77;13.80;;;;;4.80;100637.00;;;;10396268;28;20317;-78
2024/03/04 22:11:24;;;;;;;20.53;13.27;;;;;4.80;100632.00;;;;10384166;28;20356;-77
2024/03/04 22:16:26;;;;;;;21.50;14.10;;;;;4.70;100627.00;;;;10364826;28;20256;-78
2024/03/04 22:21:27;;;;;;;18.43;12.93;;;;;4.60;100634.00;;;;10352759;28;20231;-78
2024/03/04 22:26:29;;;;;;;18.30;12.40;;;;;4.60;100638.00;;;;10378589;28;20276;-77
2024/03/04 22:31:30;;;;;;;17.63;11.53;;;;;4.60;100628.00;;;;10385237;28;20226;-77
2024/03/04 22:36:31;;;;;;;18.00;12.30;;;;;4.70;100634.00;;;;10398514;28;20222;-77
2024/03/04 22:41:32;;;;;;;18.10;11.67;;;;;4.70;100633.00;;;;10363508;28;20722;-77
2024/03/04 22:46:33;;;;;;;14.73;11.50;;;;;4.70;100645.00;;;;10347320;28;20258;-77
2024/03/04 22:51:35;;;;;;;14.73;11.10;;;;;4.60;100639.00;;;;10366567;28;20736;-82
2024/03/04 22:56:36;;;;;;;14.57;11.20;;;;;4.50;100637.00;;;;10385836;28;20258;-82
2024/03/04 23:01:37;;;;;;;21.13;12.63;;;;;4.30;100643.00;;;;10366109;28;20234;-82
2024/03/04 23:06:38;;;;;;;16.67;11.77;;;;;4.30;100638.00;;;;10373221;28;20233;-83
2024/03/04 23:11:39;;;;;;;18.57;13.27;;;;;4.30;100650.00;;;;10370804;28;20309;-82
2024/03/04 23:16:41;;;;;;;18.87;13.20;;;;;4.40;100650.00;;;;10347044;28;20572;-82
2024/03/04 23:21:45;;;;;;;20.37;14.37;;;;;4.50;100651.00;;;;10367942;28;20227;-81
2024/03/04 23:26:46;;;;;;;20.47;13.87;;;;;4.50;100658.00;;;;10378607;28;20309;-83
2024/03/04 23:31:50;;;;;;;18.27;13.63;;;;;4.40;100659.00;;;;10373453;28;20246;-83
2024/03/04 23:36:52;;;;;;;20.23;14.20;;;;;4.30;100665.00;;;;10351340;28;20499;-82
2024/03/04 23:41:53;;;;;;;20.57;14.73;;;;;4.20;100663.00;;;;10345822;28;20314;-82
2024/03/04 23:46:54;;;;;;;22.57;15.97;;;;;4.10;100671.00;;;;10362978;28;20223;-82
2024/03/04 23:51:56;;;;;;;24.03;15.27;;;;;4.00;100668.00;;;;10366530;28;20229;-81
2024/03/04 23:56:58;;;;;;;22.27;15.17;;;;;4.00;100681.00;;;;10372662;28;20226;-80
